CheckWX is a tool to help pilots better visualize weather data.  It is not intended as a substitute for an official pre-flight weather briefing.

12:45:52 UTC

KILG METAR
New Castle Airport
Wilmington, Delaware, USA
Current

55 mins ago

KILG 161151Z 20009G16KT 10SM CLR 22/16 A2992 RMK AO2 SLP130 T02170161 10217 20206 58005
Observed
Jun-16 @ 11:51 UTC
Wind
  • 200° at 9 KTS
  • Gusting to 16 KTS
Visibility
10 SM
Flight Rules
VFR
Cloud Levels
  • Clear skies
Temperature
22°C / 72°F
Dewpoint
16°C / 61°F
Humidity
69%
Altimeter
29.92" Hg
Pressure
1013.22 hPa
Previous

2 hours ago

KILG 161051Z 20006KT 10SM CLR 21/16 A2992 RMK AO2 SLP132 T02110156
Observed
Jun-16 @ 10:51 UTC
Wind
  • 200° at 6 KTS
Visibility
10 SM
Flight Rules
VFR
Cloud Levels
  • Clear skies
Temperature
21°C / 70°F
Dewpoint
16°C / 61°F
Humidity
73%
Altimeter
29.92" Hg
Pressure
1013.22 hPa
Previous

3 hours ago

KILG 160951Z AUTO 20006KT 10SM CLR 21/14 A2993 RMK AO2 SLP133 T02060144
Observed
Jun-16 @ 09:51 UTC
Wind
  • 200° at 6 KTS
Visibility
10 SM
Flight Rules
VFR
Cloud Levels
  • Clear skies
Temperature
21°C / 70°F
Dewpoint
14°C / 57°F
Humidity
64%
Altimeter
29.93" Hg
Pressure
1013.52 hPa